sensor_id;sensor_type;location;lat;lon;timestamp;P1;durP1;ratioP1;P2;durP2;ratioP2
13847;SDS011;6994;49.752;6.094;2023-07-13T00:02:20;2.35;;;1.70;;
13847;SDS011;6994;49.752;6.094;2023-07-13T00:04:47;4.45;;;1.30;;
13847;SDS011;6994;49.752;6.094;2023-07-13T00:07:14;2.08;;;1.80;;
13847;SDS011;6994;49.752;6.094;2023-07-13T00:09:42;1.50;;;1.40;;
13847;SDS011;6994;49.752;6.094;2023-07-13T00:14:56;3.20;;;1.48;;
13847;SDS011;6994;49.752;6.094;2023-07-13T00:17:24;3.45;;;1.80;;
13847;SDS011;6994;49.752;6.094;2023-07-13T00:19:52;2.58;;;1.90;;
13847;SDS011;6994;49.752;6.094;2023-07-13T00:22:19;2.60;;;1.48;;
13847;SDS011;6994;49.752;6.094;2023-07-13T00:24:46;7.43;;;1.37;;
13847;SDS011;6994;49.752;6.094;2023-07-13T00:27:13;3.20;;;1.73;;
13847;SDS011;6994;49.752;6.094;2023-07-13T00:29:40;2.08;;;1.35;;
13847;SDS011;6994;49.752;6.094;2023-07-13T00:32:08;1.77;;;1.40;;
13847;SDS011;6994;49.752;6.094;2023-07-13T00:34:37;2.80;;;1.73;;
13847;SDS011;6994;49.752;6.094;2023-07-13T00:37:05;3.42;;;1.58;;
13847;SDS011;6994;49.752;6.094;2023-07-13T00:39:32;1.60;;;1.50;;
13847;SDS011;6994;49.752;6.094;2023-07-13T00:41:59;2.90;;;1.48;;
13847;SDS011;6994;49.752;6.094;2023-07-13T00:44:26;1.90;;;1.30;;
13847;SDS011;6994;49.752;6.094;2023-07-13T00:46:53;2.25;;;1.42;;
13847;SDS011;6994;49.752;6.094;2023-07-13T00:49:23;1.50;;;1.40;;
13847;SDS011;6994;49.752;6.094;2023-07-13T00:51:52;1.62;;;1.50;;
13847;SDS011;6994;49.752;6.094;2023-07-13T00:54:19;3.28;;;1.80;;
13847;SDS011;6994;49.752;6.094;2023-07-13T00:56:45;2.92;;;1.85;;
13847;SDS011;6994;49.752;6.094;2023-07-13T00:59:12;2.22;;;1.48;;
13847;SDS011;6994;49.752;6.094;2023-07-13T01:01:39;1.48;;;1.30;;
13847;SDS011;6994;49.752;6.094;2023-07-13T01:04:06;2.42;;;1.67;;
13847;SDS011;6994;49.752;6.094;2023-07-13T01:06:37;3.03;;;1.33;;
13847;SDS011;6994;49.752;6.094;2023-07-13T01:09:04;1.45;;;1.23;;
13847;SDS011;6994;49.752;6.094;2023-07-13T01:11:31;2.53;;;1.23;;
13847;SDS011;6994;49.752;6.094;2023-07-13T01:13:59;1.37;;;1.27;;
13847;SDS011;6994;49.752;6.094;2023-07-13T01:16:27;5.95;;;1.70;;
13847;SDS011;6994;49.752;6.094;2023-07-13T01:18:54;1.75;;;0.95;;
13847;SDS011;6994;49.752;6.094;2023-07-13T01:21:21;2.08;;;1.02;;
13847;SDS011;6994;49.752;6.094;2023-07-13T01:23:48;1.15;;;1.08;;
13847;SDS011;6994;49.752;6.094;2023-07-13T01:26:15;2.05;;;1.30;;
13847;SDS011;6994;49.752;6.094;2023-07-13T01:28:43;1.50;;;1.40;;
13847;SDS011;6994;49.752;6.094;2023-07-13T01:31:10;1.77;;;1.48;;
13847;SDS011;6994;49.752;6.094;2023-07-13T01:33:38;3.08;;;1.83;;
13847;SDS011;6994;49.752;6.094;2023-07-13T01:36:07;2.10;;;1.50;;
13847;SDS011;6994;49.752;6.094;2023-07-13T01:38:34;1.98;;;1.60;;
13847;SDS011;6994;49.752;6.094;2023-07-13T01:41:01;2.05;;;1.73;;
13847;SDS011;6994;49.752;6.094;2023-07-13T01:43:28;3.65;;;1.12;;
13847;SDS011;6994;49.752;6.094;2023-07-13T01:45:56;3.67;;;1.35;;
13847;SDS011;6994;49.752;6.094;2023-07-13T01:48:23;4.72;;;1.52;;
13847;SDS011;6994;49.752;6.094;2023-07-13T01:50:50;1.90;;;1.50;;
13847;SDS011;6994;49.752;6.094;2023-07-13T01:53:17;2.03;;;1.33;;
13847;SDS011;6994;49.752;6.094;2023-07-13T01:55:45;2.35;;;1.25;;
13847;SDS011;6994;49.752;6.094;2023-07-13T01:58:12;5.60;;;1.65;;
13847;SDS011;6994;49.752;6.094;2023-07-13T02:00:40;2.03;;;1.52;;
13847;SDS011;6994;49.752;6.094;2023-07-13T02:03:08;2.75;;;1.42;;
13847;SDS011;6994;49.752;6.094;2023-07-13T02:05:35;1.90;;;1.40;;
13847;SDS011;6994;49.752;6.094;2023-07-13T02:08:02;1.83;;;1.20;;
13847;SDS011;6994;49.752;6.094;2023-07-13T02:10:29;1.45;;;1.25;;
13847;SDS011;6994;49.752;6.094;2023-07-13T02:12:56;3.12;;;1.40;;
13847;SDS011;6994;49.752;6.094;2023-07-13T02:15:24;4.12;;;1.90;;
13847;SDS011;6994;49.752;6.094;2023-07-13T02:17:51;2.67;;;1.95;;
13847;SDS011;6994;49.752;6.094;2023-07-13T02:20:18;1.73;;;1.33;;
13847;SDS011;6994;49.752;6.094;2023-07-13T02:22:45;1.60;;;1.50;;
13847;SDS011;6994;49.752;6.094;2023-07-13T02:25:12;1.73;;;1.20;;
13847;SDS011;6994;49.752;6.094;2023-07-13T02:27:40;2.75;;;1.60;;
13847;SDS011;6994;49.752;6.094;2023-07-13T02:30:07;2.35;;;1.55;;
13847;SDS011;6994;49.752;6.094;2023-07-13T02:32:35;3.78;;;1.70;;
13847;SDS011;6994;49.752;6.094;2023-07-13T02:35:03;2.00;;;1.60;;
13847;SDS011;6994;49.752;6.094;2023-07-13T02:37:30;3.37;;;1.45;;
13847;SDS011;6994;49.752;6.094;2023-07-13T02:39:57;4.75;;;1.80;;
13847;SDS011;6994;49.752;6.094;2023-07-13T02:42:24;2.20;;;1.98;;
13847;SDS011;6994;49.752;6.094;2023-07-13T02:44:52;1.83;;;1.70;;
13847;SDS011;6994;49.752;6.094;2023-07-13T02:47:19;3.42;;;1.87;;
13847;SDS011;6994;49.752;6.094;2023-07-13T02:49:46;2.20;;;2.00;;
13847;SDS011;6994;49.752;6.094;2023-07-13T02:52:13;2.80;;;1.45;;
13847;SDS011;6994;49.752;6.094;2023-07-13T02:54:40;3.25;;;1.90;;
13847;SDS011;6994;49.752;6.094;2023-07-13T02:57:08;3.53;;;1.80;;
13847;SDS011;6994;49.752;6.094;2023-07-13T02:59:36;3.55;;;2.10;;
13847;SDS011;6994;49.752;6.094;2023-07-13T03:02:04;3.28;;;1.87;;
13847;SDS011;6994;49.752;6.094;2023-07-13T03:04:31;1.87;;;1.52;;
13847;SDS011;6994;49.752;6.094;2023-07-13T03:06:59;3.17;;;1.83;;
13847;SDS011;6994;49.752;6.094;2023-07-13T03:09:26;5.20;;;2.35;;
13847;SDS011;6994;49.752;6.094;2023-07-13T03:11:54;2.30;;;2.10;;
13847;SDS011;6994;49.752;6.094;2023-07-13T03:14:21;5.53;;;2.17;;
13847;SDS011;6994;49.752;6.094;2023-07-13T03:16:48;2.03;;;1.60;;
13847;SDS011;6994;49.752;6.094;2023-07-13T03:19:15;2.00;;;1.80;;
13847;SDS011;6994;49.752;6.094;2023-07-13T03:21:42;1.77;;;1.62;;
13847;SDS011;6994;49.752;6.094;2023-07-13T03:24:09;2.03;;;1.83;;
13847;SDS011;6994;49.752;6.094;2023-07-13T03:26:36;1.65;;;1.55;;
13847;SDS011;6994;49.752;6.094;2023-07-13T03:29:04;1.60;;;1.30;;
13847;SDS011;6994;49.752;6.094;2023-07-13T03:31:33;4.28;;;1.50;;
13847;SDS011;6994;49.752;6.094;2023-07-13T03:33:58;2.60;;;1.50;;
13847;SDS011;6994;49.752;6.094;2023-07-13T03:36:26;3.83;;;1.60;;
13847;SDS011;6994;49.752;6.094;2023-07-13T03:38:53;3.33;;;1.75;;
13847;SDS011;6994;49.752;6.094;2023-07-13T03:41:20;5.15;;;1.70;;
13847;SDS011;6994;49.752;6.094;2023-07-13T03:43:47;2.47;;;1.95;;
13847;SDS011;6994;49.752;6.094;2023-07-13T03:46:14;4.87;;;1.98;;
13847;SDS011;6994;49.752;6.094;2023-07-13T03:48:41;2.80;;;2.03;;
13847;SDS011;6994;49.752;6.094;2023-07-13T03:51:08;4.37;;;1.98;;
13847;SDS011;6994;49.752;6.094;2023-07-13T03:53:39;2.15;;;1.77;;
13847;SDS011;6994;49.752;6.094;2023-07-13T03:56:06;1.70;;;1.60;;
13847;SDS011;6994;49.752;6.094;2023-07-13T03:58:34;4.60;;;2.10;;
13847;SDS011;6994;49.752;6.094;2023-07-13T04:01:03;2.55;;;1.20;;
13847;SDS011;6994;49.752;6.094;2023-07-13T04:03:30;4.10;;;1.90;;
13847;SDS011;6994;49.752;6.094;2023-07-13T04:05:57;3.72;;;1.87;;
13847;SDS011;6994;49.752;6.094;2023-07-13T04:08:24;4.60;;;1.80;;
13847;SDS011;6994;49.752;6.094;2023-07-13T04:10:51;3.40;;;1.33;;
13847;SDS011;6994;49.752;6.094;2023-07-13T04:13:18;2.50;;;1.60;;
13847;SDS011;6994;49.752;6.094;2023-07-13T04:15:46;2.08;;;1.83;;
13847;SDS011;6994;49.752;6.094;2023-07-13T04:18:13;4.40;;;2.05;;
13847;SDS011;6994;49.752;6.094;2023-07-13T04:20:41;2.40;;;1.40;;
13847;SDS011;6994;49.752;6.094;2023-07-13T04:23:08;4.68;;;1.80;;
13847;SDS011;6994;49.752;6.094;2023-07-13T04:25:35;1.92;;;1.80;;
13847;SDS011;6994;49.752;6.094;2023-07-13T04:28:03;4.60;;;1.65;;
13847;SDS011;6994;49.752;6.094;2023-07-13T04:30:30;5.43;;;1.90;;
13847;SDS011;6994;49.752;6.094;2023-07-13T04:32:58;2.42;;;1.98;;
13847;SDS011;6994;49.752;6.094;2023-07-13T04:35:25;3.85;;;1.80;;
13847;SDS011;6994;49.752;6.094;2023-07-13T04:37:52;3.22;;;1.25;;
13847;SDS011;6994;49.752;6.094;2023-07-13T04:40:19;2.92;;;1.70;;
13847;SDS011;6994;49.752;6.094;2023-07-13T04:42:46;4.45;;;1.60;;
13847;SDS011;6994;49.752;6.094;2023-07-13T04:45:14;3.42;;;1.70;;
13847;SDS011;6994;49.752;6.094;2023-07-13T04:47:41;5.12;;;2.37;;
13847;SDS011;6994;49.752;6.094;2023-07-13T04:50:08;5.80;;;1.55;;
13847;SDS011;6994;49.752;6.094;2023-07-13T04:52:35;2.30;;;1.80;;
13847;SDS011;6994;49.752;6.094;2023-07-13T04:55:03;2.10;;;1.50;;
13847;SDS011;6994;49.752;6.094;2023-07-13T04:57:30;1.95;;;1.33;;
13847;SDS011;6994;49.752;6.094;2023-07-13T04:59:57;2.05;;;1.77;;
13847;SDS011;6994;49.752;6.094;2023-07-13T05:02:24;3.47;;;1.80;;
13847;SDS011;6994;49.752;6.094;2023-07-13T05:04:51;2.60;;;2.35;;
13847;SDS011;6994;49.752;6.094;2023-07-13T05:07:19;3.78;;;1.40;;
13847;SDS011;6994;49.752;6.094;2023-07-13T05:09:46;3.75;;;2.00;;
13847;SDS011;6994;49.752;6.094;2023-07-13T05:12:13;2.05;;;1.12;;
13847;SDS011;6994;49.752;6.094;2023-07-13T05:14:40;3.70;;;1.70;;
13847;SDS011;6994;49.752;6.094;2023-07-13T05:17:07;3.95;;;1.58;;
13847;SDS011;6994;49.752;6.094;2023-07-13T05:19:35;2.75;;;1.87;;
13847;SDS011;6994;49.752;6.094;2023-07-13T05:22:03;2.45;;;1.70;;
13847;SDS011;6994;49.752;6.094;2023-07-13T05:24:31;5.37;;;1.85;;
13847;SDS011;6994;49.752;6.094;2023-07-13T05:26:59;3.50;;;1.20;;
13847;SDS011;6994;49.752;6.094;2023-07-13T05:29:27;2.03;;;1.45;;
13847;SDS011;6994;49.752;6.094;2023-07-13T05:31:54;1.77;;;1.12;;
13847;SDS011;6994;49.752;6.094;2023-07-13T05:34:21;2.05;;;1.33;;
13847;SDS011;6994;49.752;6.094;2023-07-13T05:36:48;1.27;;;1.00;;
13847;SDS011;6994;49.752;6.094;2023-07-13T05:39:16;3.72;;;1.62;;
13847;SDS011;6994;49.752;6.094;2023-07-13T05:41:43;2.20;;;1.27;;
13847;SDS011;6994;49.752;6.094;2023-07-13T05:44:10;2.75;;;1.60;;
13847;SDS011;6994;49.752;6.094;2023-07-13T05:46:37;2.60;;;1.25;;
13847;SDS011;6994;49.752;6.094;2023-07-13T05:49:04;2.80;;;1.75;;
13847;SDS011;6994;49.752;6.094;2023-07-13T05:51:31;1.87;;;1.00;;
13847;SDS011;6994;49.752;6.094;2023-07-13T05:53:59;4.50;;;1.37;;
13847;SDS011;6994;49.752;6.094;2023-07-13T05:56:26;7.55;;;1.12;;
13847;SDS011;6994;49.752;6.094;2023-07-13T05:58:54;1.83;;;1.10;;
13847;SDS011;6994;49.752;6.094;2023-07-13T06:01:22;1.98;;;1.05;;
13847;SDS011;6994;49.752;6.094;2023-07-13T06:03:49;2.17;;;0.85;;
13847;SDS011;6994;49.752;6.094;2023-07-13T06:06:16;1.52;;;0.85;;
13847;SDS011;6994;49.752;6.094;2023-07-13T06:08:43;4.35;;;1.48;;
13847;SDS011;6994;49.752;6.094;2023-07-13T06:11:15;4.62;;;0.80;;
13847;SDS011;6994;49.752;6.094;2023-07-13T06:13:41;2.08;;;0.77;;
13847;SDS011;6994;49.752;6.094;2023-07-13T06:16:08;3.70;;;1.08;;
13847;SDS011;6994;49.752;6.094;2023-07-13T06:18:35;3.95;;;1.12;;
13847;SDS011;6994;49.752;6.094;2023-07-13T06:21:06;4.62;;;1.17;;
13847;SDS011;6994;49.752;6.094;2023-07-13T06:23:35;2.00;;;1.30;;
13847;SDS011;6994;49.752;6.094;2023-07-13T06:26:03;2.28;;;0.88;;
13847;SDS011;6994;49.752;6.094;2023-07-13T06:28:29;2.83;;;1.02;;
13847;SDS011;6994;49.752;6.094;2023-07-13T06:30:57;3.35;;;1.20;;
13847;SDS011;6994;49.752;6.094;2023-07-13T06:33:24;3.85;;;0.93;;
13847;SDS011;6994;49.752;6.094;2023-07-13T06:35:51;3.62;;;1.12;;
13847;SDS011;6994;49.752;6.094;2023-07-13T06:38:18;4.78;;;1.10;;
13847;SDS011;6994;49.752;6.094;2023-07-13T06:40:45;1.67;;;0.88;;
13847;SDS011;6994;49.752;6.094;2023-07-13T06:43:13;1.67;;;0.93;;
13847;SDS011;6994;49.752;6.094;2023-07-13T06:45:41;3.47;;;0.98;;
13847;SDS011;6994;49.752;6.094;2023-07-13T06:48:09;2.85;;;0.98;;
13847;SDS011;6994;49.752;6.094;2023-07-13T06:50:36;4.50;;;1.15;;
13847;SDS011;6994;49.752;6.094;2023-07-13T06:53:04;2.60;;;0.98;;
13847;SDS011;6994;49.752;6.094;2023-07-13T06:55:32;1.92;;;0.73;;
13847;SDS011;6994;49.752;6.094;2023-07-13T06:57:59;4.55;;;0.90;;
13847;SDS011;6994;49.752;6.094;2023-07-13T07:00:26;3.50;;;0.88;;
13847;SDS011;6994;49.752;6.094;2023-07-13T07:02:54;4.97;;;1.08;;
13847;SDS011;6994;49.752;6.094;2023-07-13T07:05:21;2.85;;;0.70;;
13847;SDS011;6994;49.752;6.094;2023-07-13T07:07:53;3.65;;;0.95;;
13847;SDS011;6994;49.752;6.094;2023-07-13T07:10:15;3.12;;;1.30;;
13847;SDS011;6994;49.752;6.094;2023-07-13T07:12:42;3.35;;;1.40;;
13847;SDS011;6994;49.752;6.094;2023-07-13T07:15:10;2.05;;;0.80;;
13847;SDS011;6994;49.752;6.094;2023-07-13T07:17:37;1.95;;;0.90;;
13847;SDS011;6994;49.752;6.094;2023-07-13T07:20:04;2.72;;;0.60;;
13847;SDS011;6994;49.752;6.094;2023-07-13T07:22:31;1.98;;;0.85;;
13847;SDS011;6994;49.752;6.094;2023-07-13T07:24:58;3.62;;;0.90;;
13847;SDS011;6994;49.752;6.094;2023-07-13T07:27:26;2.92;;;1.00;;
13847;SDS011;6994;49.752;6.094;2023-07-13T07:29:53;4.30;;;0.90;;
13847;SDS011;6994;49.752;6.094;2023-07-13T07:32:20;3.30;;;0.60;;
13847;SDS011;6994;49.752;6.094;2023-07-13T07:34:47;3.47;;;0.90;;
13847;SDS011;6994;49.752;6.094;2023-07-13T07:37:14;3.35;;;1.10;;
13847;SDS011;6994;49.752;6.094;2023-07-13T07:39:45;3.72;;;0.70;;
13847;SDS011;6994;49.752;6.094;2023-07-13T07:42:12;3.12;;;0.90;;
13847;SDS011;6994;49.752;6.094;2023-07-13T07:44:39;3.75;;;0.70;;
13847;SDS011;6994;49.752;6.094;2023-07-13T07:47:07;2.65;;;1.08;;
13847;SDS011;6994;49.752;6.094;2023-07-13T07:49:34;2.85;;;0.80;;
13847;SDS011;6994;49.752;6.094;2023-07-13T07:52:01;1.67;;;0.90;;
13847;SDS011;6994;49.752;6.094;2023-07-13T07:54:28;2.35;;;0.80;;
13847;SDS011;6994;49.752;6.094;2023-07-13T07:56:55;1.62;;;0.80;;
13847;SDS011;6994;49.752;6.094;2023-07-13T07:59:22;2.55;;;0.73;;
13847;SDS011;6994;49.752;6.094;2023-07-13T08:01:49;2.92;;;1.00;;
13847;SDS011;6994;49.752;6.094;2023-07-13T08:04:17;4.32;;;0.90;;
13847;SDS011;6994;49.752;6.094;2023-07-13T08:06:45;2.92;;;0.60;;
13847;SDS011;6994;49.752;6.094;2023-07-13T08:09:12;1.42;;;0.82;;
13847;SDS011;6994;49.752;6.094;2023-07-13T08:11:39;2.30;;;1.20;;
13847;SDS011;6994;49.752;6.094;2023-07-13T08:14:06;2.08;;;0.85;;
13847;SDS011;6994;49.752;6.094;2023-07-13T08:16:33;2.70;;;0.80;;
13847;SDS011;6994;49.752;6.094;2023-07-13T08:19:01;1.50;;;0.70;;
13847;SDS011;6994;49.752;6.094;2023-07-13T08:21:28;1.52;;;0.60;;
13847;SDS011;6994;49.752;6.094;2023-07-13T08:23:55;3.35;;;0.70;;
13847;SDS011;6994;49.752;6.094;2023-07-13T08:26:22;2.10;;;0.80;;
13847;SDS011;6994;49.752;6.094;2023-07-13T08:28:49;1.00;;;0.95;;
13847;SDS011;6994;49.752;6.094;2023-07-13T08:31:17;2.83;;;0.93;;
13847;SDS011;6994;49.752;6.094;2023-07-13T08:33:44;4.00;;;0.73;;
13847;SDS011;6994;49.752;6.094;2023-07-13T08:36:11;3.25;;;0.98;;
13847;SDS011;6994;49.752;6.094;2023-07-13T08:38:38;1.35;;;0.50;;
13847;SDS011;6994;49.752;6.094;2023-07-13T08:41:15;1.08;;;0.70;;
13847;SDS011;6994;49.752;6.094;2023-07-13T08:43:42;1.65;;;0.75;;
13847;SDS011;6994;49.752;6.094;2023-07-13T08:46:23;3.00;;;0.82;;
13847;SDS011;6994;49.752;6.094;2023-07-13T08:49:03;1.08;;;0.62;;
13847;SDS011;6994;49.752;6.094;2023-07-13T08:51:33;4.50;;;0.70;;
13847;SDS011;6994;49.752;6.094;2023-07-13T08:54:03;2.40;;;0.73;;
13847;SDS011;6994;49.752;6.094;2023-07-13T08:56:29;1.92;;;0.70;;
13847;SDS011;6994;49.752;6.094;2023-07-13T08:59:00;2.28;;;0.45;;
13847;SDS011;6994;49.752;6.094;2023-07-13T09:04:25;3.25;;;0.70;;
13847;SDS011;6994;49.752;6.094;2023-07-13T09:12:26;3.15;;;0.82;;
13847;SDS011;6994;49.752;6.094;2023-07-13T09:15:14;1.95;;;1.05;;
13847;SDS011;6994;49.752;6.094;2023-07-13T09:17:41;0.85;;;0.55;;
13847;SDS011;6994;49.752;6.094;2023-07-13T09:20:17;0.85;;;0.40;;
13847;SDS011;6994;49.752;6.094;2023-07-13T09:22:46;1.95;;;0.77;;
13847;SDS011;6994;49.752;6.094;2023-07-13T09:25:27;1.12;;;0.55;;
13847;SDS011;6994;49.752;6.094;2023-07-13T09:27:53;0.57;;;0.57;;
13847;SDS011;6994;49.752;6.094;2023-07-13T09:31:09;1.10;;;0.60;;
13847;SDS011;6994;49.752;6.094;2023-07-13T09:32:49;1.15;;;0.70;;
13847;SDS011;6994;49.752;6.094;2023-07-13T09:35:22;3.12;;;0.70;;
13847;SDS011;6994;49.752;6.094;2023-07-13T09:37:47;2.22;;;0.70;;
13847;SDS011;6994;49.752;6.094;2023-07-13T09:40:24;1.73;;;0.75;;
13847;SDS011;6994;49.752;6.094;2023-07-13T09:42:45;1.30;;;0.68;;
13847;SDS011;6994;49.752;6.094;2023-07-13T09:45:13;0.65;;;0.45;;
13847;SDS011;6994;49.752;6.094;2023-07-13T09:47:41;1.25;;;0.88;;
13847;SDS011;6994;49.752;6.094;2023-07-13T09:50:15;1.08;;;0.40;;
13847;SDS011;6994;49.752;6.094;2023-07-13T09:52:43;1.08;;;0.60;;
13847;SDS011;6994;49.752;6.094;2023-07-13T09:58:40;2.50;;;0.82;;
13847;SDS011;6994;49.752;6.094;2023-07-13T10:00:55;1.15;;;0.40;;
13847;SDS011;6994;49.752;6.094;2023-07-13T10:03:26;1.75;;;0.60;;
13847;SDS011;6994;49.752;6.094;2023-07-13T10:05:52;1.20;;;0.52;;
13847;SDS011;6994;49.752;6.094;2023-07-13T10:08:20;1.45;;;0.52;;
13847;SDS011;6994;49.752;6.094;2023-07-13T10:10:46;2.78;;;0.55;;
13847;SDS011;6994;49.752;6.094;2023-07-13T10:13:36;0.82;;;0.50;;
13847;SDS011;6994;49.752;6.094;2023-07-13T10:15:52;1.95;;;0.50;;
13847;SDS011;6994;49.752;6.094;2023-07-13T10:18:19;2.08;;;0.45;;
13847;SDS011;6994;49.752;6.094;2023-07-13T10:20:46;0.88;;;0.40;;
13847;SDS011;6994;49.752;6.094;2023-07-13T10:23:15;1.37;;;0.60;;
13847;SDS011;6994;49.752;6.094;2023-07-13T10:25:42;0.80;;;0.50;;
13847;SDS011;6994;49.752;6.094;2023-07-13T10:28:14;1.50;;;0.60;;
13847;SDS011;6994;49.752;6.094;2023-07-13T10:30:38;1.08;;;0.50;;
13847;SDS011;6994;49.752;6.094;2023-07-13T10:33:12;0.47;;;0.47;;
13847;SDS011;6994;49.752;6.094;2023-07-13T10:35:33;0.88;;;0.40;;
13847;SDS011;6994;49.752;6.094;2023-07-13T10:38:01;1.55;;;0.52;;
13847;SDS011;6994;49.752;6.094;2023-07-13T10:40:28;0.90;;;0.50;;
13847;SDS011;6994;49.752;6.094;2023-07-13T10:42:54;2.30;;;0.30;;
13847;SDS011;6994;49.752;6.094;2023-07-13T10:45:22;1.42;;;0.40;;
13847;SDS011;6994;49.752;6.094;2023-07-13T10:47:51;0.43;;;0.30;;
13847;SDS011;6994;49.752;6.094;2023-07-13T10:50:22;0.98;;;0.50;;
13847;SDS011;6994;49.752;6.094;2023-07-13T10:52:49;0.77;;;0.50;;
13847;SDS011;6994;49.752;6.094;2023-07-13T10:55:40;1.00;;;0.75;;
13847;SDS011;6994;49.752;6.094;2023-07-13T11:03:33;2.00;;;0.60;;
13847;SDS011;6994;49.752;6.094;2023-07-13T11:06:15;1.90;;;0.50;;
13847;SDS011;6994;49.752;6.094;2023-07-13T11:18:46;1.12;;;0.62;;
13847;SDS011;6994;49.752;6.094;2023-07-13T11:21:13;1.92;;;0.70;;
13847;SDS011;6994;49.752;6.094;2023-07-13T11:23:41;1.35;;;0.52;;
13847;SDS011;6994;49.752;6.094;2023-07-13T11:26:36;1.25;;;0.70;;
13847;SDS011;6994;49.752;6.094;2023-07-13T11:28:34;1.50;;;0.57;;
13847;SDS011;6994;49.752;6.094;2023-07-13T11:31:01;0.77;;;0.65;;
13847;SDS011;6994;49.752;6.094;2023-07-13T11:33:31;0.60;;;0.40;;
13847;SDS011;6994;49.752;6.094;2023-07-13T11:38:43;2.28;;;0.77;;
13847;SDS011;6994;49.752;6.094;2023-07-13T11:41:25;1.45;;;0.62;;
13847;SDS011;6994;49.752;6.094;2023-07-13T11:44:01;2.35;;;0.60;;
13847;SDS011;6994;49.752;6.094;2023-07-13T11:46:23;1.08;;;0.47;;
13847;SDS011;6994;49.752;6.094;2023-07-13T11:48:50;4.62;;;0.90;;
13847;SDS011;6994;49.752;6.094;2023-07-13T11:51:32;1.58;;;0.62;;
13847;SDS011;6994;49.752;6.094;2023-07-13T11:54:03;1.23;;;0.60;;
13847;SDS011;6994;49.752;6.094;2023-07-13T11:56:32;0.80;;;0.55;;
13847;SDS011;6994;49.752;6.094;2023-07-13T11:59:02;1.17;;;0.60;;
13847;SDS011;6994;49.752;6.094;2023-07-13T12:01:27;2.60;;;0.77;;
13847;SDS011;6994;49.752;6.094;2023-07-13T12:03:53;0.37;;;0.37;;
13847;SDS011;6994;49.752;6.094;2023-07-13T12:06:28;2.20;;;1.05;;
13847;SDS011;6994;49.752;6.094;2023-07-13T12:08:50;1.95;;;0.62;;
13847;SDS011;6994;49.752;6.094;2023-07-13T12:11:18;1.02;;;0.95;;
13847;SDS011;6994;49.752;6.094;2023-07-13T12:13:46;0.93;;;0.60;;
13847;SDS011;6994;49.752;6.094;2023-07-13T12:16:16;1.48;;;0.60;;
13847;SDS011;6994;49.752;6.094;2023-07-13T12:18:39;3.12;;;0.55;;
13847;SDS011;6994;49.752;6.094;2023-07-13T12:21:09;2.05;;;0.80;;
13847;SDS011;6994;49.752;6.094;2023-07-13T12:23:34;1.80;;;0.77;;
13847;SDS011;6994;49.752;6.094;2023-07-13T12:26:01;0.55;;;0.52;;
13847;SDS011;6994;49.752;6.094;2023-07-13T12:28:45;0.50;;;0.50;;
13847;SDS011;6994;49.752;6.094;2023-07-13T12:31:57;0.52;;;0.47;;
13847;SDS011;6994;49.752;6.094;2023-07-13T12:34:07;1.52;;;0.70;;
13847;SDS011;6994;49.752;6.094;2023-07-13T12:36:26;2.20;;;0.90;;
13847;SDS011;6994;49.752;6.094;2023-07-13T12:38:53;1.52;;;0.65;;
13847;SDS011;6994;49.752;6.094;2023-07-13T12:41:21;0.68;;;0.52;;
13847;SDS011;6994;49.752;6.094;2023-07-13T12:43:48;1.35;;;0.80;;
13847;SDS011;6994;49.752;6.094;2023-07-13T12:46:20;1.12;;;0.60;;
13847;SDS011;6994;49.752;6.094;2023-07-13T12:48:48;1.33;;;0.77;;
13847;SDS011;6994;49.752;6.094;2023-07-13T12:51:13;1.58;;;0.88;;
13847;SDS011;6994;49.752;6.094;2023-07-13T12:53:43;1.15;;;0.62;;
13847;SDS011;6994;49.752;6.094;2023-07-13T12:56:10;0.93;;;0.70;;
13847;SDS011;6994;49.752;6.094;2023-07-13T12:58:36;0.88;;;0.40;;
13847;SDS011;6994;49.752;6.094;2023-07-13T13:01:03;2.67;;;0.70;;
13847;SDS011;6994;49.752;6.094;2023-07-13T13:03:40;1.00;;;0.60;;
13847;SDS011;6994;49.752;6.094;2023-07-13T13:08:46;1.50;;;0.57;;
13847;SDS011;6994;49.752;6.094;2023-07-13T13:11:12;0.73;;;0.52;;
13847;SDS011;6994;49.752;6.094;2023-07-13T13:13:40;1.60;;;0.62;;
13847;SDS011;6994;49.752;6.094;2023-07-13T13:16:16;1.92;;;0.70;;
13847;SDS011;6994;49.752;6.094;2023-07-13T13:18:43;0.50;;;0.50;;
13847;SDS011;6994;49.752;6.094;2023-07-13T13:21:10;1.30;;;0.50;;
13847;SDS011;6994;49.752;6.094;2023-07-13T13:23:37;2.53;;;0.75;;
13847;SDS011;6994;49.752;6.094;2023-07-13T13:26:08;1.90;;;0.80;;
13847;SDS011;6994;49.752;6.094;2023-07-13T13:28:32;1.58;;;0.82;;
13847;SDS011;6994;49.752;6.094;2023-07-13T13:30:59;0.85;;;0.60;;
13847;SDS011;6994;49.752;6.094;2023-07-13T13:33:27;3.53;;;0.93;;
13847;SDS011;6994;49.752;6.094;2023-07-13T13:35:54;2.97;;;1.02;;
13847;SDS011;6994;49.752;6.094;2023-07-13T13:38:25;6.10;;;0.95;;
13847;SDS011;6994;49.752;6.094;2023-07-13T13:40:52;1.50;;;0.60;;
13847;SDS011;6994;49.752;6.094;2023-07-13T13:43:26;1.40;;;0.80;;
13847;SDS011;6994;49.752;6.094;2023-07-13T13:45:56;1.42;;;0.75;;
13847;SDS011;6994;49.752;6.094;2023-07-13T13:48:32;1.70;;;0.85;;
13847;SDS011;6994;49.752;6.094;2023-07-13T13:51:00;1.12;;;0.80;;
13847;SDS011;6994;49.752;6.094;2023-07-13T13:53:28;3.30;;;0.95;;
13847;SDS011;6994;49.752;6.094;2023-07-13T13:55:56;2.30;;;0.88;;
13847;SDS011;6994;49.752;6.094;2023-07-13T13:58:24;3.62;;;0.68;;
13847;SDS011;6994;49.752;6.094;2023-07-13T14:00:52;1.58;;;0.80;;
13847;SDS011;6994;49.752;6.094;2023-07-13T14:03:20;3.60;;;0.82;;
13847;SDS011;6994;49.752;6.094;2023-07-13T14:05:46;1.12;;;0.80;;
13847;SDS011;6994;49.752;6.094;2023-07-13T14:08:17;1.20;;;0.70;;
13847;SDS011;6994;49.752;6.094;2023-07-13T14:10:47;0.40;;;0.40;;
13847;SDS011;6994;49.752;6.094;2023-07-13T14:13:17;3.42;;;0.70;;
13847;SDS011;6994;49.752;6.094;2023-07-13T14:15:43;1.85;;;0.80;;
13847;SDS011;6994;49.752;6.094;2023-07-13T14:18:10;0.73;;;0.73;;
13847;SDS011;6994;49.752;6.094;2023-07-13T14:20:37;2.50;;;1.08;;
13847;SDS011;6994;49.752;6.094;2023-07-13T14:23:05;1.45;;;0.80;;
13847;SDS011;6994;49.752;6.094;2023-07-13T14:25:32;3.33;;;1.00;;
13847;SDS011;6994;49.752;6.094;2023-07-13T14:27:59;1.10;;;0.93;;
13847;SDS011;6994;49.752;6.094;2023-07-13T14:30:26;2.25;;;0.90;;
13847;SDS011;6994;49.752;6.094;2023-07-13T14:32:53;2.62;;;0.88;;
13847;SDS011;6994;49.752;6.094;2023-07-13T14:35:21;3.72;;;0.90;;
13847;SDS011;6994;49.752;6.094;2023-07-13T14:37:48;2.15;;;0.90;;
13847;SDS011;6994;49.752;6.094;2023-07-13T14:40:23;1.40;;;1.00;;
13847;SDS011;6994;49.752;6.094;2023-07-13T14:42:48;1.65;;;0.73;;
13847;SDS011;6994;49.752;6.094;2023-07-13T14:45:16;6.65;;;0.80;;
13847;SDS011;6994;49.752;6.094;2023-07-13T14:47:42;0.85;;;0.70;;
13847;SDS011;6994;49.752;6.094;2023-07-13T14:50:17;1.83;;;0.88;;
13847;SDS011;6994;49.752;6.094;2023-07-13T14:52:44;1.58;;;0.70;;
13847;SDS011;6994;49.752;6.094;2023-07-13T14:55:11;3.70;;;0.93;;
13847;SDS011;6994;49.752;6.094;2023-07-13T14:57:38;1.50;;;0.68;;
13847;SDS011;6994;49.752;6.094;2023-07-13T15:00:11;1.30;;;0.80;;
13847;SDS011;6994;49.752;6.094;2023-07-13T15:02:35;1.60;;;0.82;;
13847;SDS011;6994;49.752;6.094;2023-07-13T15:05:05;4.00;;;0.60;;
13847;SDS011;6994;49.752;6.094;2023-07-13T15:07:30;1.73;;;0.80;;
13847;SDS011;6994;49.752;6.094;2023-07-13T15:09:57;4.07;;;1.40;;
13847;SDS011;6994;49.752;6.094;2023-07-13T15:12:24;2.10;;;1.00;;
13847;SDS011;6994;49.752;6.094;2023-07-13T15:14:51;1.77;;;0.73;;
13847;SDS011;6994;49.752;6.094;2023-07-13T15:17:31;1.17;;;0.80;;
13847;SDS011;6994;49.752;6.094;2023-07-13T15:19:58;0.60;;;0.60;;
13847;SDS011;6994;49.752;6.094;2023-07-13T15:22:25;0.62;;;0.62;;
13847;SDS011;6994;49.752;6.094;2023-07-13T15:24:52;2.30;;;0.70;;
13847;SDS011;6994;49.752;6.094;2023-07-13T15:27:19;1.35;;;0.73;;
13847;SDS011;6994;49.752;6.094;2023-07-13T15:29:46;3.37;;;1.10;;
13847;SDS011;6994;49.752;6.094;2023-07-13T15:32:14;2.35;;;1.10;;
13847;SDS011;6994;49.752;6.094;2023-07-13T15:34:41;1.98;;;1.00;;
13847;SDS011;6994;49.752;6.094;2023-07-13T15:37:11;1.62;;;0.80;;
13847;SDS011;6994;49.752;6.094;2023-07-13T15:39:35;0.60;;;0.60;;
13847;SDS011;6994;49.752;6.094;2023-07-13T15:42:02;0.75;;;0.73;;